sensor_id;sensor_type;location;lat;lon;timestamp;temperature;humidity
68109;SHT30;54893;49.864;19.084;2024-02-21T00:03:51;4.34;99.95
68109;SHT30;54893;49.864;19.084;2024-02-21T00:08:51;4.25;99.99
68109;SHT30;54893;49.864;19.084;2024-02-21T00:13:52;4.24;99.99
68109;SHT30;54893;49.864;19.084;2024-02-21T00:18:52;4.28;99.99
68109;SHT30;54893;49.864;19.084;2024-02-21T00:23:52;4.25;99.99
68109;SHT30;54893;49.864;19.084;2024-02-21T00:28:53;4.27;99.99
68109;SHT30;54893;49.864;19.084;2024-02-21T00:33:53;4.27;99.99
68109;SHT30;54893;49.864;19.084;2024-02-21T00:38:54;4.30;99.87
68109;SHT30;54893;49.864;19.084;2024-02-21T00:43:54;4.28;99.80
68109;SHT30;54893;49.864;19.084;2024-02-21T00:48:54;4.24;99.99
68109;SHT30;54893;49.864;19.084;2024-02-21T00:53:55;4.16;99.99
68109;SHT30;54893;49.864;19.084;2024-02-21T00:58:55;4.10;99.99
68109;SHT30;54893;49.864;19.084;2024-02-21T01:03:56;4.03;99.99
68109;SHT30;54893;49.864;19.084;2024-02-21T01:08:56;4.03;99.99
68109;SHT30;54893;49.864;19.084;2024-02-21T01:13:56;4.05;99.99
68109;SHT30;54893;49.864;19.084;2024-02-21T01:18:57;4.16;99.99
68109;SHT30;54893;49.864;19.084;2024-02-21T01:23:58;4.24;99.36
68109;SHT30;54893;49.864;19.084;2024-02-21T01:28:58;4.30;99.19
68109;SHT30;54893;49.864;19.084;2024-02-21T01:33:59;4.25;99.29
68109;SHT30;54893;49.864;19.084;2024-02-21T01:38:59;4.21;99.21
68109;SHT30;54893;49.864;19.084;2024-02-21T01:43:59;4.22;99.53
68109;SHT30;54893;49.864;19.084;2024-02-21T01:49:00;4.22;99.37
68109;SHT30;54893;49.864;19.084;2024-02-21T01:54:01;4.21;99.19
68109;SHT30;54893;49.864;19.084;2024-02-21T01:59:01;4.22;99.08
68109;SHT30;54893;49.864;19.084;2024-02-21T02:04:02;4.20;99.09
68109;SHT30;54893;49.864;19.084;2024-02-21T02:09:05;4.22;98.93
68109;SHT30;54893;49.864;19.084;2024-02-21T02:14:05;4.25;98.83
68109;SHT30;54893;49.864;19.084;2024-02-21T02:19:06;4.22;98.95
68109;SHT30;54893;49.864;19.084;2024-02-21T02:24:06;4.25;98.85
68109;SHT30;54893;49.864;19.084;2024-02-21T02:29:07;4.27;98.75
68109;SHT30;54893;49.864;19.084;2024-02-21T02:34:08;4.28;98.67
68109;SHT30;54893;49.864;19.084;2024-02-21T02:39:08;4.33;98.58
68109;SHT30;54893;49.864;19.084;2024-02-21T02:44:08;4.36;98.37
68109;SHT30;54893;49.864;19.084;2024-02-21T02:49:09;4.40;98.29
68109;SHT30;54893;49.864;19.084;2024-02-21T02:54:09;4.40;98.13
68109;SHT30;54893;49.864;19.084;2024-02-21T02:59:10;4.48;97.82
68109;SHT30;54893;49.864;19.084;2024-02-21T03:04:10;4.51;97.35
68109;SHT30;54893;49.864;19.084;2024-02-21T03:09:11;4.45;97.18
68109;SHT30;54893;49.864;19.084;2024-02-21T03:14:12;4.37;97.37
68109;SHT30;54893;49.864;19.084;2024-02-21T03:19:12;4.37;97.41
68109;SHT30;54893;49.864;19.084;2024-02-21T03:24:12;4.31;97.48
68109;SHT30;54893;49.864;19.084;2024-02-21T03:29:14;4.30;97.79
68109;SHT30;54893;49.864;19.084;2024-02-21T03:34:15;4.21;98.56
68109;SHT30;54893;49.864;19.084;2024-02-21T03:39:15;4.16;98.54
68109;SHT30;54893;49.864;19.084;2024-02-21T03:44:15;4.13;99.22
68109;SHT30;54893;49.864;19.084;2024-02-21T03:49:16;4.07;99.75
68109;SHT30;54893;49.864;19.084;2024-02-21T03:54:16;3.95;99.83
68109;SHT30;54893;49.864;19.084;2024-02-21T03:59:17;3.86;99.99
68109;SHT30;54893;49.864;19.084;2024-02-21T04:04:17;3.74;99.99
68109;SHT30;54893;49.864;19.084;2024-02-21T04:09:17;3.64;99.99
68109;SHT30;54893;49.864;19.084;2024-02-21T04:14:18;3.62;99.99
68109;SHT30;54893;49.864;19.084;2024-02-21T04:19:18;3.63;99.99
68109;SHT30;54893;49.864;19.084;2024-02-21T04:24:19;3.63;99.99
68109;SHT30;54893;49.864;19.084;2024-02-21T04:29:19;3.62;99.99
68109;SHT30;54893;49.864;19.084;2024-02-21T04:34:19;3.72;99.18
68109;SHT30;54893;49.864;19.084;2024-02-21T04:39:20;3.72;99.22
68109;SHT30;54893;49.864;19.084;2024-02-21T04:44:20;3.63;98.83
68109;SHT30;54893;49.864;19.084;2024-02-21T04:49:22;3.79;98.45
68109;SHT30;54893;49.864;19.084;2024-02-21T04:54:22;3.77;98.66
68109;SHT30;54893;49.864;19.084;2024-02-21T04:59:23;3.82;98.58
68109;SHT30;54893;49.864;19.084;2024-02-21T05:04:23;3.93;98.51
68109;SHT30;54893;49.864;19.084;2024-02-21T05:09:24;3.86;98.69
68109;SHT30;54893;49.864;19.084;2024-02-21T05:14:27;3.79;98.69
68109;SHT30;54893;49.864;19.084;2024-02-21T05:19:28;3.77;98.92
68109;SHT30;54893;49.864;19.084;2024-02-21T05:24:28;3.76;98.73
68109;SHT30;54893;49.864;19.084;2024-02-21T05:29:29;3.63;98.83
68109;SHT30;54893;49.864;19.084;2024-02-21T05:34:30;3.48;98.88
68109;SHT30;54893;49.864;19.084;2024-02-21T05:39:30;3.55;98.89
68109;SHT30;54893;49.864;19.084;2024-02-21T05:44:31;3.52;98.79
68109;SHT30;54893;49.864;19.084;2024-02-21T05:49:31;3.55;98.69
68109;SHT30;54893;49.864;19.084;2024-02-21T05:54:32;3.59;98.72
68109;SHT30;54893;49.864;19.084;2024-02-21T05:59:32;3.67;98.46
68109;SHT30;54893;49.864;19.084;2024-02-21T06:04:33;3.76;98.18
68109;SHT30;54893;49.864;19.084;2024-02-21T06:09:33;3.87;98.17
68109;SHT30;54893;49.864;19.084;2024-02-21T06:14:35;4.04;97.93
68109;SHT30;54893;49.864;19.084;2024-02-21T06:19:36;4.10;97.88
68109;SHT30;54893;49.864;19.084;2024-02-21T06:24:36;4.27;97.71
68109;SHT30;54893;49.864;19.084;2024-02-21T06:29:37;4.44;97.42
68109;SHT30;54893;49.864;19.084;2024-02-21T06:34:37;4.51;97.33
68109;SHT30;54893;49.864;19.084;2024-02-21T06:39:38;4.64;96.83
68109;SHT30;54893;49.864;19.084;2024-02-21T06:44:38;4.72;96.56
68109;SHT30;54893;49.864;19.084;2024-02-21T06:49:40;4.83;96.33
68109;SHT30;54893;49.864;19.084;2024-02-21T06:54:41;4.95;96.38
68109;SHT30;54893;49.864;19.084;2024-02-21T06:59:42;5.06;95.38
68109;SHT30;54893;49.864;19.084;2024-02-21T07:04:43;5.15;94.70
68109;SHT30;54893;49.864;19.084;2024-02-21T07:09:43;5.23;94.69
68109;SHT30;54893;49.864;19.084;2024-02-21T07:14:44;5.27;93.84
68109;SHT30;54893;49.864;19.084;2024-02-21T07:19:45;5.36;93.43
68109;SHT30;54893;49.864;19.084;2024-02-21T07:24:45;5.49;93.38
68109;SHT30;54893;49.864;19.084;2024-02-21T07:29:45;5.61;92.53
68109;SHT30;54893;49.864;19.084;2024-02-21T07:34:48;5.78;92.96
68109;SHT30;54893;49.864;19.084;2024-02-21T07:39:49;5.89;92.87
68109;SHT30;54893;49.864;19.084;2024-02-21T07:44:49;6.00;92.73
68109;SHT30;54893;49.864;19.084;2024-02-21T07:49:50;6.07;91.54
68109;SHT30;54893;49.864;19.084;2024-02-21T07:54:50;6.14;91.52
68109;SHT30;54893;49.864;19.084;2024-02-21T07:59:51;6.27;91.33
68109;SHT30;54893;49.864;19.084;2024-02-21T08:04:51;6.42;91.56
68109;SHT30;54893;49.864;19.084;2024-02-21T08:09:51;6.59;91.00
68109;SHT30;54893;49.864;19.084;2024-02-21T08:14:52;6.67;90.31
68109;SHT30;54893;49.864;19.084;2024-02-21T08:19:52;6.72;89.67
68109;SHT30;54893;49.864;19.084;2024-02-21T08:24:53;6.82;90.14
68109;SHT30;54893;49.864;19.084;2024-02-21T08:29:53;7.22;88.55
68109;SHT30;54893;49.864;19.084;2024-02-21T08:34:53;7.64;87.80
68109;SHT30;54893;49.864;19.084;2024-02-21T08:39:54;7.85;87.09
68109;SHT30;54893;49.864;19.084;2024-02-21T08:44:55;8.50;85.68
68109;SHT30;54893;49.864;19.084;2024-02-21T08:49:55;8.60;86.03
68109;SHT30;54893;49.864;19.084;2024-02-21T08:54:55;8.75;85.00
68109;SHT30;54893;49.864;19.084;2024-02-21T08:59:56;8.69;84.94
68109;SHT30;54893;49.864;19.084;2024-02-21T09:04:56;8.35;85.00
68109;SHT30;54893;49.864;19.084;2024-02-21T09:09:57;7.83;85.66
68109;SHT30;54893;49.864;19.084;2024-02-21T09:14:57;7.91;85.35
68109;SHT30;54893;49.864;19.084;2024-02-21T09:19:57;8.18;84.97
68109;SHT30;54893;49.864;19.084;2024-02-21T09:25:03;8.18;84.29
68109;SHT30;54893;49.864;19.084;2024-02-21T09:30:04;8.55;84.01
68109;SHT30;54893;49.864;19.084;2024-02-21T09:35:05;8.75;83.51
68109;SHT30;54893;49.864;19.084;2024-02-21T09:40:06;9.22;82.23
68109;SHT30;54893;49.864;19.084;2024-02-21T09:45:20;9.31;81.37
68109;SHT30;54893;49.864;19.084;2024-02-21T09:50:22;9.02;81.04
68109;SHT30;54893;49.864;19.084;2024-02-21T09:55:26;9.03;81.64
68109;SHT30;54893;49.864;19.084;2024-02-21T10:00:27;9.24;80.90
68109;SHT30;54893;49.864;19.084;2024-02-21T10:05:28;9.16;80.66
68109;SHT30;54893;49.864;19.084;2024-02-21T10:10:28;8.99;80.42
68109;SHT30;54893;49.864;19.084;2024-02-21T10:15:30;9.12;81.07
68109;SHT30;54893;49.864;19.084;2024-02-21T10:20:31;9.22;81.38
68109;SHT30;54893;49.864;19.084;2024-02-21T10:25:31;9.47;81.17
68109;SHT30;54893;49.864;19.084;2024-02-21T10:30:31;9.57;80.14
68109;SHT30;54893;49.864;19.084;2024-02-21T10:35:33;9.34;81.04
68109;SHT30;54893;49.864;19.084;2024-02-21T10:40:33;9.40;80.52
68109;SHT30;54893;49.864;19.084;2024-02-21T10:45:35;9.38;79.55
68109;SHT30;54893;49.864;19.084;2024-02-21T10:56:18;9.47;80.05
68109;SHT30;54893;49.864;19.084;2024-02-21T11:01:22;9.61;79.38
68109;SHT30;54893;49.864;19.084;2024-02-21T11:06:24;9.61;78.83
68109;SHT30;54893;49.864;19.084;2024-02-21T11:11:26;9.85;78.65
68109;SHT30;54893;49.864;19.084;2024-02-21T11:16:27;9.91;78.51
68109;SHT30;54893;49.864;19.084;2024-02-21T11:21:35;9.58;77.76
68109;SHT30;54893;49.864;19.084;2024-02-21T11:26:40;9.46;77.95
68109;SHT30;54893;49.864;19.084;2024-02-21T11:31:44;9.38;78.75
68109;SHT30;54893;49.864;19.084;2024-02-21T11:36:47;9.40;79.11
68109;SHT30;54893;49.864;19.084;2024-02-21T11:42:04;9.36;78.83
68109;SHT30;54893;49.864;19.084;2024-02-21T11:47:09;9.58;79.00
68109;SHT30;54893;49.864;19.084;2024-02-21T11:52:09;9.52;77.42
68109;SHT30;54893;49.864;19.084;2024-02-21T11:57:10;9.55;78.46
68109;SHT30;54893;49.864;19.084;2024-02-21T12:02:12;9.43;78.84
68109;SHT30;54893;49.864;19.084;2024-02-21T12:07:12;9.26;79.49
68109;SHT30;54893;49.864;19.084;2024-02-21T12:12:19;9.09;79.18
68109;SHT30;54893;49.864;19.084;2024-02-21T12:17:20;9.00;79.46
68109;SHT30;54893;49.864;19.084;2024-02-21T12:22:20;8.96;79.26
68109;SHT30;54893;49.864;19.084;2024-02-21T12:27:21;9.10;79.41
68109;SHT30;54893;49.864;19.084;2024-02-21T12:32:22;9.26;79.03
68109;SHT30;54893;49.864;19.084;2024-02-21T12:37:25;9.10;78.42
68109;SHT30;54893;49.864;19.084;2024-02-21T12:42:26;8.72;79.75
68109;SHT30;54893;49.864;19.084;2024-02-21T12:47:29;8.34;81.87
68109;SHT30;54893;49.864;19.084;2024-02-21T12:52:29;8.08;82.78
68109;SHT30;54893;49.864;19.084;2024-02-21T12:57:30;7.99;83.63
68109;SHT30;54893;49.864;19.084;2024-02-21T13:02:30;7.94;84.92
68109;SHT30;54893;49.864;19.084;2024-02-21T13:07:31;7.77;86.29
68109;SHT30;54893;49.864;19.084;2024-02-21T13:12:32;7.77;86.89
68109;SHT30;54893;49.864;19.084;2024-02-21T13:17:32;7.78;87.63
68109;SHT30;54893;49.864;19.084;2024-02-21T13:22:33;7.85;87.67
68109;SHT30;54893;49.864;19.084;2024-02-21T13:27:34;7.87;87.97
68109;SHT30;54893;49.864;19.084;2024-02-21T13:32:34;7.94;87.95
68109;SHT30;54893;49.864;19.084;2024-02-21T13:37:34;7.99;88.32
68109;SHT30;54893;49.864;19.084;2024-02-21T13:42:37;7.94;88.27
68109;SHT30;54893;49.864;19.084;2024-02-21T13:47:38;7.97;88.43
68109;SHT30;54893;49.864;19.084;2024-02-21T13:52:39;7.88;89.00
68109;SHT30;54893;49.864;19.084;2024-02-21T13:57:39;7.80;89.45
68109;SHT30;54893;49.864;19.084;2024-02-21T14:02:40;7.70;89.84
68109;SHT30;54893;49.864;19.084;2024-02-21T14:07:40;7.56;90.16
68109;SHT30;54893;49.864;19.084;2024-02-21T14:12:40;7.49;90.40
68109;SHT30;54893;49.864;19.084;2024-02-21T14:17:41;7.42;89.99
68109;SHT30;54893;49.864;19.084;2024-02-21T14:22:41;7.39;90.03
68109;SHT30;54893;49.864;19.084;2024-02-21T14:27:42;7.26;90.30
68109;SHT30;54893;49.864;19.084;2024-02-21T14:32:44;7.24;90.74
68109;SHT30;54893;49.864;19.084;2024-02-21T14:37:45;7.26;90.88
68109;SHT30;54893;49.864;19.084;2024-02-21T14:42:46;7.26;91.02
68109;SHT30;54893;49.864;19.084;2024-02-21T14:47:46;7.29;90.87
68109;SHT30;54893;49.864;19.084;2024-02-21T14:52:47;7.34;91.32
68109;SHT30;54893;49.864;19.084;2024-02-21T14:57:47;7.37;91.45
68109;SHT30;54893;49.864;19.084;2024-02-21T15:02:47;7.33;91.62
68109;SHT30;54893;49.864;19.084;2024-02-21T15:07:48;7.26;91.49
68109;SHT30;54893;49.864;19.084;2024-02-21T15:12:48;7.30;90.52
68109;SHT30;54893;49.864;19.084;2024-02-21T15:17:49;7.06;90.72
68109;SHT30;54893;49.864;19.084;2024-02-21T15:22:50;7.02;91.13
68109;SHT30;54893;49.864;19.084;2024-02-21T15:27:51;7.09;90.56
68109;SHT30;54893;49.864;19.084;2024-02-21T15:32:51;6.92;90.55
68109;SHT30;54893;49.864;19.084;2024-02-21T15:37:52;9.41;86.23
68109;SHT30;54893;49.864;19.084;2024-02-21T15:42:53;9.70;84.06
68109;SHT30;54893;49.864;19.084;2024-02-21T15:47:54;7.40;87.70
68109;SHT30;54893;49.864;19.084;2024-02-21T15:52:54;6.91;89.09
68109;SHT30;54893;49.864;19.084;2024-02-21T15:57:55;6.48;90.52
68109;SHT30;54893;49.864;19.084;2024-02-21T16:02:56;6.20;90.55
68109;SHT30;54893;49.864;19.084;2024-02-21T16:07:57;6.32;89.39
68109;SHT30;54893;49.864;19.084;2024-02-21T16:12:57;5.89;90.57
68109;SHT30;54893;49.864;19.084;2024-02-21T16:17:58;5.87;90.24
68109;SHT30;54893;49.864;19.084;2024-02-21T16:22:59;5.78;90.11
68109;SHT30;54893;49.864;19.084;2024-02-21T16:28:03;5.81;89.99
68109;SHT30;54893;49.864;19.084;2024-02-21T16:33:04;5.86;89.60
68109;SHT30;54893;49.864;19.084;2024-02-21T16:38:04;5.80;90.43
68109;SHT30;54893;49.864;19.084;2024-02-21T16:43:05;5.66;90.59
68109;SHT30;54893;49.864;19.084;2024-02-21T16:48:06;5.80;90.12
68109;SHT30;54893;49.864;19.084;2024-02-21T16:53:06;5.94;89.89
68109;SHT30;54893;49.864;19.084;2024-02-21T16:58:07;5.94;89.93
68109;SHT30;54893;49.864;19.084;2024-02-21T17:03:08;5.64;90.62
68109;SHT30;54893;49.864;19.084;2024-02-21T17:08:09;5.56;90.82
68109;SHT30;54893;49.864;19.084;2024-02-21T17:13:09;5.63;90.37
68109;SHT30;54893;49.864;19.084;2024-02-21T17:18:09;5.57;90.35
68109;SHT30;54893;49.864;19.084;2024-02-21T17:23:10;5.57;90.67
68109;SHT30;54893;49.864;19.084;2024-02-21T17:28:12;5.35;91.33
68109;SHT30;54893;49.864;19.084;2024-02-21T17:33:13;5.53;90.84
68109;SHT30;54893;49.864;19.084;2024-02-21T17:38:14;5.42;91.05
68109;SHT30;54893;49.864;19.084;2024-02-21T17:43:15;5.22;91.96
68109;SHT30;54893;49.864;19.084;2024-02-21T17:48:15;5.12;92.35
68109;SHT30;54893;49.864;19.084;2024-02-21T17:53:16;5.02;92.62
68109;SHT30;54893;49.864;19.084;2024-02-21T17:58:17;5.15;92.52
68109;SHT30;54893;49.864;19.084;2024-02-21T18:03:18;5.13;92.02
68109;SHT30;54893;49.864;19.084;2024-02-21T18:08:20;5.05;92.77
68109;SHT30;54893;49.864;19.084;2024-02-21T18:13:20;4.91;93.36
68109;SHT30;54893;49.864;19.084;2024-02-21T18:18:22;4.97;93.12
68109;SHT30;54893;49.864;19.084;2024-02-21T18:23:22;5.26;92.51
68109;SHT30;54893;49.864;19.084;2024-02-21T18:28:22;5.42;91.82
68109;SHT30;54893;49.864;19.084;2024-02-21T18:33:23;5.29;92.12
68109;SHT30;54893;49.864;19.084;2024-02-21T18:38:23;5.35;91.96
68109;SHT30;54893;49.864;19.084;2024-02-21T18:43:24;5.15;92.28
68109;SHT30;54893;49.864;19.084;2024-02-21T18:48:24;4.99;92.79
68109;SHT30;54893;49.864;19.084;2024-02-21T18:53:25;5.09;93.29
68109;SHT30;54893;49.864;19.084;2024-02-21T18:58:25;5.15;93.16
68109;SHT30;54893;49.864;19.084;2024-02-21T19:03:25;5.39;92.67
68109;SHT30;54893;49.864;19.084;2024-02-21T19:08:26;5.30;92.70
68109;SHT30;54893;49.864;19.084;2024-02-21T19:13:26;5.49;92.18
68109;SHT30;54893;49.864;19.084;2024-02-21T19:18:27;5.32;92.59
68109;SHT30;54893;49.864;19.084;2024-02-21T19:23:27;5.37;92.46
68109;SHT30;54893;49.864;19.084;2024-02-21T19:28:53;5.26;92.70
68109;SHT30;54893;49.864;19.084;2024-02-21T19:33:54;5.29;92.58
68109;SHT30;54893;49.864;19.084;2024-02-21T19:38:54;5.30;92.44
68109;SHT30;54893;49.864;19.084;2024-02-21T19:43:55;5.22;92.54
68109;SHT30;54893;49.864;19.084;2024-02-21T19:48:55;5.11;92.70
68109;SHT30;54893;49.864;19.084;2024-02-21T19:53:55;4.97;93.43
68109;SHT30;54893;49.864;19.084;2024-02-21T19:58:56;4.97;93.23
68109;SHT30;54893;49.864;19.084;2024-02-21T20:04:01;4.81;93.04
68109;SHT30;54893;49.864;19.084;2024-02-21T20:09:04;4.69;94.16
68109;SHT30;54893;49.864;19.084;2024-02-21T20:14:06;4.72;94.21
68109;SHT30;54893;49.864;19.084;2024-02-21T20:19:07;4.76;93.41
68109;SHT30;54893;49.864;19.084;2024-02-21T20:24:13;4.78;93.69
68109;SHT30;54893;49.864;19.084;2024-02-21T20:29:17;4.76;93.03
68109;SHT30;54893;49.864;19.084;2024-02-21T20:34:18;4.82;93.39
68109;SHT30;54893;49.864;19.084;2024-02-21T20:39:18;4.93;92.74
68109;SHT30;54893;49.864;19.084;2024-02-21T20:44:19;5.12;92.03
68109;SHT30;54893;49.864;19.084;2024-02-21T20:49:20;5.43;91.09
68109;SHT30;54893;49.864;19.084;2024-02-21T20:54:20;5.39;90.97
68109;SHT30;54893;49.864;19.084;2024-02-21T20:59:21;5.29;91.30
68109;SHT30;54893;49.864;19.084;2024-02-21T21:04:23;5.25;91.26
68109;SHT30;54893;49.864;19.084;2024-02-21T21:09:23;5.20;91.56
68109;SHT30;54893;49.864;19.084;2024-02-21T21:14:25;5.30;91.16
68109;SHT30;54893;49.864;19.084;2024-02-21T21:19:28;5.36;91.29
68109;SHT30;54893;49.864;19.084;2024-02-21T21:24:29;5.56;90.78
68109;SHT30;54893;49.864;19.084;2024-02-21T21:29:31;5.66;90.31
68109;SHT30;54893;49.864;19.084;2024-02-21T21:34:34;5.73;89.88
68109;SHT30;54893;49.864;19.084;2024-02-21T21:39:35;5.87;89.36
68109;SHT30;54893;49.864;19.084;2024-02-21T21:44:35;6.00;89.10
68109;SHT30;54893;49.864;19.084;2024-02-21T21:49:36;6.15;88.40
68109;SHT30;54893;49.864;19.084;2024-02-21T21:54:36;6.01;88.60
68109;SHT30;54893;49.864;19.084;2024-02-21T21:59:36;6.07;88.43
68109;SHT30;54893;49.864;19.084;2024-02-21T22:04:37;6.18;88.00
68109;SHT30;54893;49.864;19.084;2024-02-21T22:09:38;6.29;87.35
68109;SHT30;54893;49.864;19.084;2024-02-21T22:14:39;6.39;87.02
68109;SHT30;54893;49.864;19.084;2024-02-21T22:19:39;6.39;86.81
68109;SHT30;54893;49.864;19.084;2024-02-21T22:24:40;6.59;86.38
68109;SHT30;54893;49.864;19.084;2024-02-21T22:29:44;6.61;85.90
68109;SHT30;54893;49.864;19.084;2024-02-21T22:34:44;6.69;85.59
68109;SHT30;54893;49.864;19.084;2024-02-21T22:39:45;6.73;84.83
68109;SHT30;54893;49.864;19.084;2024-02-21T22:44:46;6.73;84.07
68109;SHT30;54893;49.864;19.084;2024-02-21T22:49:46;6.83;83.96
68109;SHT30;54893;49.864;19.084;2024-02-21T22:54:47;6.86;83.69
68109;SHT30;54893;49.864;19.084;2024-02-21T22:59:47;6.86;84.01
68109;SHT30;54893;49.864;19.084;2024-02-21T23:04:47;6.96;82.38
68109;SHT30;54893;49.864;19.084;2024-02-21T23:09:48;6.91;82.49
68109;SHT30;54893;49.864;19.084;2024-02-21T23:14:48;7.02;82.09
68109;SHT30;54893;49.864;19.084;2024-02-21T23:19:49;7.03;82.10
68109;SHT30;54893;49.864;19.084;2024-02-21T23:24:49;7.16;81.60
68109;SHT30;54893;49.864;19.084;2024-02-21T23:29:50;7.23;80.44
68109;SHT30;54893;49.864;19.084;2024-02-21T23:34:50;7.31;80.16
68109;SHT30;54893;49.864;19.084;2024-02-21T23:39:50;7.44;79.21
68109;SHT30;54893;49.864;19.084;2024-02-21T23:44:51;7.44;79.03
68109;SHT30;54893;49.864;19.084;2024-02-21T23:49:51;7.42;78.50
68109;SHT30;54893;49.864;19.084;2024-02-21T23:54:52;7.49;77.79
68109;SHT30;54893;49.864;19.084;2024-02-21T23:59:53;7.50;77.68
